Ana Sayfa
METAR-TAF:

METAR-TAF

Havaalanları :

Chariton Municipal Airport

Chariton, Iowa, Amerika Birleşik Devletleri

Enlem: 41-02N, Boylam: 093-22W, yükseklik: 320 m

Güncel hava durumu gözlemi

Rapor saat 10:55 UTC de 32 dakika önce yapıldı.
Rüzgar güneybatıdan 13 kt ve 19 kt'a kadar ani rüzgarlar
Sıcaklık 27°C
Nem 74%
Basınç 1006 hPa
Görüş mesafesi: 14.5 km

METAR: KCNC 251055Z AUTO 22013G19KT 9SM 27/22 A2972 RMK AO2

Saat: 06:27 (11:27 UTC)


TAF: eksik

4.000'den fazla havaalanı için hava durumu gözlemleri ve tahminleri (METAR ve TAF raporları).

Kullanılabilir istasyonlar harita üzerinde sarı ve kırmızı noktalarla gösterilir.

İstasyonun adını görmek için fareyi noktanın üzerinde gezdirin.

Sonrasında hava gözlem ve tahminlerini görmek için tıklayın.

Haritayı değiştirmek için: yaklaştırmak için siyah artı işaretli yeşil düğmeye ve uzaklaştırmak için de eksi işaretli düğmeye hızla tıklayın; bitişik haritalar için yeşil okları kullanın.


METAR-TAF: